createdAt,value
2018-03-04T00:00:59.222Z,-4.96
2018-03-04T00:03:27.604Z,-4.88
2018-03-04T00:05:56.008Z,-4.79
2018-03-04T00:08:24.415Z,-4.96
2018-03-04T00:10:52.798Z,-5.01
2018-03-04T00:13:21.190Z,-5.04
2018-03-04T00:15:49.578Z,-4.93
2018-03-04T00:18:17.962Z,-4.85
2018-03-04T00:20:46.330Z,-4.96
2018-03-04T00:23:14.740Z,-4.96
2018-03-04T00:25:43.129Z,-4.90
2018-03-04T00:28:11.506Z,-4.81
2018-03-04T00:30:39.893Z,-4.82
2018-03-04T00:33:08.262Z,-4.88
2018-03-04T00:35:36.648Z,-4.98
2018-03-04T00:38:05.027Z,-4.92
2018-03-04T00:40:33.406Z,-4.81
2018-03-04T00:43:01.836Z,-4.90
2018-03-04T00:45:30.215Z,-4.97
2018-03-04T00:47:59.461Z,-4.90
2018-03-04T00:50:27.896Z,-4.95
2018-03-04T00:52:57.039Z,-4.75
2018-03-04T00:55:25.408Z,-4.77
2018-03-04T00:57:53.807Z,-4.78
2018-03-04T01:00:22.218Z,-4.77
2018-03-04T01:02:50.657Z,-4.65
2018-03-04T01:05:19.052Z,-4.69
2018-03-04T01:07:47.551Z,-4.61
2018-03-04T01:10:15.993Z,-4.59
2018-03-04T01:12:44.380Z,-4.69
2018-03-04T01:15:12.785Z,-4.68
2018-03-04T01:17:41.153Z,-4.72
2018-03-04T01:20:09.533Z,-4.74
2018-03-04T01:22:37.936Z,-4.77
2018-03-04T01:25:07.083Z,-4.77
2018-03-04T01:27:35.467Z,-4.76
2018-03-04T01:30:03.873Z,-4.73
2018-03-04T01:32:32.240Z,-4.69
2018-03-04T01:35:00.613Z,-4.73
2018-03-04T01:37:29.005Z,-4.76
2018-03-04T01:39:57.410Z,-4.62
2018-03-04T01:42:26.549Z,-4.56
2018-03-04T01:44:54.931Z,-4.61
2018-03-04T01:47:23.306Z,-4.70
2018-03-04T01:49:51.737Z,-4.57
2018-03-04T01:52:20.889Z,-4.68
2018-03-04T01:54:49.278Z,-4.66
2018-03-04T01:57:17.660Z,-4.60
2018-03-04T01:59:46.054Z,-4.65
2018-03-04T02:02:14.457Z,-4.62
2018-03-04T02:04:43.594Z,-4.54
2018-03-04T02:07:11.975Z,-4.59
2018-03-04T02:09:40.413Z,-4.61
2018-03-04T02:12:09.566Z,-4.66
2018-03-04T02:14:37.970Z,-4.74
2018-03-04T02:17:06.484Z,-4.80
2018-03-04T02:19:34.886Z,-4.84
2018-03-04T02:22:03.286Z,-4.87
2018-03-04T02:24:31.679Z,-4.93
2018-03-04T02:27:00.046Z,-4.83
2018-03-04T02:29:28.526Z,-4.81
2018-03-04T02:31:56.899Z,-4.88
2018-03-04T02:34:25.534Z,-4.83
2018-03-04T02:36:53.852Z,-4.77
2018-03-04T02:39:22.224Z,-4.71
2018-03-04T02:41:50.622Z,-4.74
2018-03-04T02:44:19.002Z,-4.81
2018-03-04T02:46:47.392Z,-4.77
2018-03-04T02:49:15.795Z,-4.79
2018-03-04T02:51:44.944Z,-4.82
2018-03-04T02:54:13.341Z,-4.73
2018-03-04T02:56:41.772Z,-4.79
2018-03-04T02:59:10.162Z,-4.80
2018-03-04T03:01:38.544Z,-4.85
2018-03-04T03:04:06.938Z,-4.88
2018-03-04T03:06:35.324Z,-4.87
2018-03-04T03:09:03.706Z,-4.87
2018-03-04T03:11:32.113Z,-4.96
2018-03-04T03:14:01.273Z,-5.00
2018-03-04T03:16:29.647Z,-5.18
2018-03-04T03:18:58.820Z,-5.15
2018-03-04T03:21:27.209Z,-5.15
2018-03-04T03:23:55.606Z,-5.18
2018-03-04T03:26:25.544Z,-5.28
2018-03-04T03:28:54.691Z,-5.29
2018-03-04T03:31:23.092Z,-5.29
2018-03-04T03:33:51.461Z,-5.44
2018-03-04T03:36:19.858Z,-5.51
2018-03-04T03:38:49.003Z,-5.53
2018-03-04T03:41:17.402Z,-5.51
2018-03-04T03:43:45.829Z,-5.49
2018-03-04T03:46:14.197Z,-5.43
2018-03-04T03:48:42.561Z,-5.51
2018-03-04T03:51:10.973Z,-5.53
2018-03-04T03:53:40.113Z,-5.61
2018-03-04T03:56:08.473Z,-5.67
2018-03-04T03:58:36.876Z,-5.71
2018-03-04T04:01:05.247Z,-5.71
2018-03-04T04:03:33.618Z,-5.75
2018-03-04T04:06:02.035Z,-5.70
2018-03-04T04:08:30.469Z,-5.71
2018-03-04T04:10:58.834Z,-5.76
2018-03-04T04:13:28.004Z,-5.75
2018-03-04T04:15:56.389Z,-5.70
2018-03-04T04:18:24.764Z,-5.73
2018-03-04T04:20:53.168Z,-5.76
2018-03-04T04:23:22.340Z,-5.67
2018-03-04T04:25:50.701Z,-5.68
2018-03-04T04:28:19.070Z,-5.74
2018-03-04T04:30:47.498Z,-5.77
2018-03-04T04:33:16.637Z,-5.84
2018-03-04T04:35:45.014Z,-5.81
2018-03-04T04:38:13.421Z,-5.77
2018-03-04T04:40:41.829Z,-5.81
2018-03-04T04:43:10.992Z,-5.79
2018-03-04T04:45:39.374Z,-5.83
2018-03-04T04:48:07.735Z,-5.77
2018-03-04T04:50:36.141Z,-5.77
2018-03-04T04:53:04.513Z,-5.78
2018-03-04T04:55:32.900Z,-5.75
2018-03-04T04:58:01.315Z,-5.58
2018-03-04T05:00:29.709Z,-5.47
2018-03-04T05:02:58.129Z,-5.48
2018-03-04T05:05:26.519Z,-5.56
2018-03-04T05:07:54.913Z,-5.52
2018-03-04T05:10:24.064Z,-5.53
2018-03-04T05:12:52.474Z,-5.49
2018-03-04T05:15:20.910Z,-5.43
2018-03-04T05:17:49.301Z,-5.53
2018-03-04T05:20:17.684Z,-5.48
2018-03-04T05:22:46.074Z,-5.48
2018-03-04T05:25:14.462Z,-5.54
2018-03-04T05:27:42.871Z,-5.50
2018-03-04T05:30:11.246Z,-5.40
2018-03-04T05:32:40.415Z,-5.49
2018-03-04T05:35:08.852Z,-5.50
2018-03-04T05:37:37.246Z,-5.48
2018-03-04T05:40:05.654Z,-5.38
2018-03-04T05:42:34.032Z,-5.40
2018-03-04T05:45:02.432Z,-5.45
2018-03-04T05:47:31.590Z,-5.34
2018-03-04T05:49:59.995Z,-5.22
2018-03-04T05:52:28.394Z,-5.33
2018-03-04T05:54:56.774Z,-5.42
2018-03-04T05:57:25.912Z,-5.29
2018-03-04T05:59:54.324Z,-5.39
2018-03-04T06:02:23.474Z,-5.43
2018-03-04T06:04:51.891Z,-5.38
2018-03-04T06:07:20.286Z,-5.31
2018-03-04T06:09:49.426Z,-5.31
2018-03-04T06:12:19.474Z,-5.41
2018-03-04T06:14:47.846Z,-5.34
2018-03-04T06:17:16.229Z,-5.35
2018-03-04T06:19:44.610Z,-5.30
2018-03-04T06:22:13.023Z,-5.20
2018-03-04T06:24:42.199Z,-5.29
2018-03-04T06:27:11.405Z,-5.12
2018-03-04T06:29:40.570Z,-5.00
2018-03-04T06:32:08.975Z,-4.95
2018-03-04T06:34:38.142Z,-5.01
2018-03-04T06:37:06.529Z,-5.11
2018-03-04T06:39:34.908Z,-5.12
2018-03-04T06:42:03.311Z,-4.94
2018-03-04T06:44:31.729Z,-4.98
2018-03-04T06:47:00.107Z,-4.85
2018-03-04T06:49:28.528Z,-4.55
2018-03-04T06:51:56.926Z,-4.51
2018-03-04T06:54:25.302Z,-4.62
2018-03-04T06:56:53.692Z,-4.41
2018-03-04T06:59:22.945Z,-4.22
2018-03-04T07:01:51.318Z,-4.08
2018-03-04T07:04:19.711Z,-3.71
2018-03-04T07:06:48.110Z,-3.77
2018-03-04T07:09:16.528Z,-3.80
2018-03-04T07:11:44.897Z,-4.03
2018-03-04T07:14:13.306Z,-4.02
2018-03-04T07:16:41.702Z,-3.78
2018-03-04T07:19:10.124Z,-4.00
2018-03-04T07:21:39.256Z,-4.00
2018-03-04T07:24:07.645Z,-3.80
2018-03-04T07:26:36.028Z,-3.78
2018-03-04T07:29:04.465Z,-3.67
2018-03-04T07:31:33.613Z,-3.66
2018-03-04T07:34:01.998Z,-3.73
2018-03-04T07:36:30.405Z,-3.60
2018-03-04T07:38:59.559Z,-3.43
2018-03-04T07:41:27.944Z,-3.26
2018-03-04T07:43:56.346Z,-3.16
2018-03-04T07:46:24.727Z,-3.22
2018-03-04T07:48:53.122Z,-3.23
2018-03-04T07:51:22.301Z,-3.15
2018-03-04T07:53:50.674Z,-3.10
2018-03-04T07:56:19.051Z,-2.80
2018-03-04T07:58:47.438Z,-2.81
2018-03-04T08:01:16.594Z,-2.64
2018-03-04T08:03:44.998Z,-2.59
2018-03-04T08:06:13.362Z,-2.75
2018-03-04T08:08:41.750Z,-2.71
2018-03-04T08:11:10.155Z,-2.65
2018-03-04T08:13:38.532Z,-2.41
2018-03-04T08:16:07.675Z,-2.24
2018-03-04T08:18:36.169Z,-1.70
2018-03-04T08:21:04.508Z,-1.63
2018-03-04T08:23:33.652Z,-1.43
2018-03-04T08:26:19.657Z,-1.29
2018-03-04T08:28:48.048Z,-1.46
2018-03-04T08:31:16.425Z,-1.26
2018-03-04T08:33:44.862Z,-1.38
2018-03-04T08:36:13.240Z,-1.11
2018-03-04T08:38:41.624Z,-1.09
2018-03-04T08:41:10.014Z,-1.01
2018-03-04T08:43:38.417Z,-1.14
2018-03-04T08:46:07.190Z,-0.84
2018-03-04T08:48:35.566Z,-0.83
2018-03-04T08:51:03.981Z,-0.62
2018-03-04T08:53:33.126Z,-0.63
2018-03-04T08:56:01.506Z,-0.62
2018-03-04T08:58:29.938Z,-0.31
2018-03-04T09:00:58.350Z,-0.12
2018-03-04T09:03:26.741Z,0.02
2018-03-04T09:05:55.986Z,0.46
2018-03-04T09:08:25.125Z,0.52
2018-03-04T09:10:53.524Z,0.69
2018-03-04T09:13:21.914Z,0.36
2018-03-04T09:15:50.297Z,0.33
2018-03-04T09:18:18.698Z,-0.11
2018-03-04T09:20:47.086Z,0.19
2018-03-04T09:23:16.221Z,0.55
2018-03-04T09:25:44.634Z,0.42
2018-03-04T09:28:13.002Z,0.91
2018-03-04T09:30:41.417Z,1.17
2018-03-04T09:33:10.682Z,3.47
2018-03-04T09:38:36.042Z,6.73
2018-03-04T09:41:05.195Z,7.39
2018-03-04T09:43:33.655Z,5.95
2018-03-04T09:46:02.038Z,6.37
2018-03-04T09:48:30.414Z,5.53
2018-03-04T09:50:58.821Z,6.32
2018-03-04T09:53:27.525Z,6.61
2018-03-04T09:55:56.018Z,5.70
2018-03-04T09:58:25.186Z,5.10
2018-03-04T10:00:53.593Z,4.73
2018-03-04T10:03:22.762Z,4.59
2018-03-04T10:05:52.299Z,4.93
2018-03-04T10:08:20.840Z,5.36
2018-03-04T10:10:49.206Z,5.97
2018-03-04T10:13:17.576Z,6.67
2018-03-04T10:15:45.951Z,8.29
2018-03-04T10:18:14.316Z,9.09
2018-03-04T10:20:42.724Z,10.24
2018-03-04T10:23:11.107Z,10.15
2018-03-04T10:25:39.480Z,9.45
2018-03-04T10:28:07.889Z,10.50
2018-03-04T10:30:36.291Z,9.38
2018-03-04T10:33:05.425Z,8.26
2018-03-04T10:35:33.817Z,7.34
2018-03-04T10:38:02.185Z,7.58
2018-03-04T10:40:30.571Z,7.17
2018-03-04T10:42:58.966Z,6.91
2018-03-04T10:45:27.342Z,6.29
2018-03-04T10:47:55.746Z,6.37
2018-03-04T10:50:24.881Z,6.43
2018-03-04T10:52:53.289Z,7.06
2018-03-04T10:55:22.406Z,7.34
2018-03-04T10:57:50.782Z,7.15
2018-03-04T11:00:24.937Z,7.16
2018-03-04T11:02:59.707Z,6.73
2018-03-04T11:05:28.131Z,6.88
2018-03-04T11:07:57.256Z,6.68
2018-03-04T11:10:25.620Z,6.77
2018-03-04T11:12:54.469Z,6.37
2018-03-04T11:15:22.878Z,6.19
2018-03-04T11:17:51.299Z,6.01
2018-03-04T11:20:19.668Z,6.02
2018-03-04T11:22:48.033Z,6.13
2018-03-04T11:25:16.467Z,6.86
2018-03-04T11:27:44.841Z,8.59
2018-03-04T11:30:13.202Z,8.46
2018-03-04T11:32:41.622Z,8.17
2018-03-04T11:35:10.765Z,6.98
2018-03-04T11:37:39.129Z,6.53
2018-03-04T11:40:07.526Z,6.47
2018-03-04T11:42:35.905Z,5.75
2018-03-04T11:45:04.309Z,5.97
2018-03-04T11:47:32.711Z,6.09
2018-03-04T11:50:01.119Z,6.33
2018-03-04T11:52:30.218Z,6.39
2018-03-04T11:54:58.651Z,6.67
2018-03-04T11:57:27.047Z,7.28
2018-03-04T11:59:56.194Z,7.24
2018-03-04T12:02:24.602Z,7.07
2018-03-04T12:04:52.961Z,7.17
2018-03-04T12:07:21.385Z,7.79
2018-03-04T12:09:50.570Z,7.27
2018-03-04T12:12:19.705Z,7.10
2018-03-04T12:14:48.083Z,7.00
2018-03-04T12:17:16.480Z,7.43
2018-03-04T12:19:44.873Z,7.36
2018-03-04T12:22:13.248Z,7.51
2018-03-04T12:24:41.657Z,7.30
2018-03-04T12:27:10.795Z,7.22
2018-03-04T12:29:39.210Z,7.13
2018-03-04T12:32:07.683Z,6.99
2018-03-04T12:34:36.088Z,7.21
2018-03-04T12:37:04.605Z,7.15
2018-03-04T12:39:32.977Z,7.12
2018-03-04T12:42:01.380Z,7.26
2018-03-04T12:44:29.838Z,7.35
2018-03-04T12:46:58.273Z,7.21
2018-03-04T12:49:26.695Z,7.19
2018-03-04T12:51:55.102Z,7.79
2018-03-04T12:54:23.536Z,8.15
2018-03-04T12:56:51.946Z,7.25
2018-03-04T12:59:20.314Z,6.85
2018-03-04T13:01:48.689Z,6.81
2018-03-04T13:04:17.097Z,7.00
2018-03-04T13:06:45.489Z,6.80
2018-03-04T13:09:13.853Z,6.86
2018-03-04T13:11:42.354Z,6.56
2018-03-04T13:14:10.760Z,6.38
2018-03-04T13:16:39.902Z,6.37
2018-03-04T13:19:08.291Z,6.48
2018-03-04T13:21:36.693Z,6.61
2018-03-04T13:24:05.122Z,7.06
2018-03-04T13:26:33.490Z,7.25
2018-03-04T13:29:02.120Z,8.19
2018-03-04T13:31:30.526Z,8.67
2018-03-04T13:33:59.754Z,9.22
2018-03-04T13:36:28.150Z,9.03
2018-03-04T13:38:56.521Z,9.31
2018-03-04T13:41:24.918Z,9.30
2018-03-04T13:43:53.297Z,9.42
2018-03-04T13:46:21.733Z,8.96
2018-03-04T13:48:50.860Z,8.65
2018-03-04T13:51:19.269Z,8.45
2018-03-04T13:53:47.650Z,8.72
2018-03-04T13:56:16.037Z,8.61
2018-03-04T13:58:44.434Z,8.42
2018-03-04T14:01:12.797Z,7.93
2018-03-04T14:03:41.201Z,7.59
2018-03-04T14:06:10.462Z,7.60
2018-03-04T14:08:39.658Z,7.74
2018-03-04T14:11:08.023Z,7.87
2018-03-04T14:13:36.384Z,7.78
2018-03-04T14:16:04.772Z,7.81
2018-03-04T14:18:33.166Z,7.81
2018-03-04T14:21:01.561Z,7.63
2018-03-04T14:23:29.969Z,7.56
2018-03-04T14:25:59.286Z,7.80
2018-03-04T14:28:27.780Z,7.73
2018-03-04T14:30:57.059Z,7.51
2018-03-04T14:33:25.481Z,7.49
2018-03-04T14:35:53.875Z,7.62
2018-03-04T14:38:22.273Z,7.40
2018-03-04T14:40:51.422Z,7.30
2018-03-04T14:43:19.847Z,7.39
2018-03-04T14:45:48.224Z,7.42
2018-03-04T14:48:17.374Z,7.45
2018-03-04T14:50:45.747Z,7.45
2018-03-04T14:53:14.180Z,7.36
2018-03-04T14:55:42.590Z,7.32
2018-03-04T14:58:10.968Z,7.31
2018-03-04T15:00:39.366Z,7.34
2018-03-04T15:03:07.773Z,7.56
2018-03-04T15:05:36.161Z,7.84
2018-03-04T15:08:04.719Z,7.84
2018-03-04T15:10:33.201Z,7.74
2018-03-04T15:13:01.605Z,7.51
2018-03-04T15:15:30.022Z,7.46
2018-03-04T15:17:58.412Z,7.36
2018-03-04T15:20:26.830Z,7.52
2018-03-04T15:22:55.210Z,7.54
2018-03-04T15:25:23.594Z,7.63
2018-03-04T15:27:51.998Z,7.75
2018-03-04T15:30:21.153Z,7.58
2018-03-04T15:32:49.509Z,7.62
2018-03-04T15:35:17.898Z,7.77
2018-03-04T15:37:46.324Z,7.66
2018-03-04T15:40:15.575Z,7.64
2018-03-04T15:42:44.030Z,7.56
2018-03-04T15:45:12.418Z,7.63
2018-03-04T15:47:40.826Z,7.69
2018-03-04T15:50:09.191Z,7.64
2018-03-04T15:52:37.682Z,7.36
2018-03-04T15:55:06.049Z,7.16
2018-03-04T15:57:34.439Z,7.00
2018-03-04T16:00:02.862Z,6.94
2018-03-04T16:02:32.056Z,6.87
2018-03-04T16:05:01.217Z,6.76
2018-03-04T16:07:29.579Z,6.69
2018-03-04T16:09:58.012Z,6.68
2018-03-04T16:12:27.156Z,6.58
2018-03-04T16:14:55.565Z,6.53
2018-03-04T16:17:23.940Z,6.39
2018-03-04T16:19:52.363Z,6.22
2018-03-04T16:22:20.808Z,6.10
2018-03-04T16:24:49.182Z,6.03
2018-03-04T16:27:17.607Z,5.88
2018-03-04T16:29:46.770Z,5.76
2018-03-04T16:32:15.150Z,5.75
2018-03-04T16:34:43.559Z,5.52
2018-03-04T16:37:11.957Z,5.40
2018-03-04T16:39:40.318Z,5.26
2018-03-04T16:42:08.747Z,5.17
2018-03-04T16:44:37.114Z,5.07
2018-03-04T16:47:05.479Z,4.89
2018-03-04T16:49:33.876Z,4.74
2018-03-04T16:52:02.293Z,4.66
2018-03-04T16:54:31.456Z,4.54
2018-03-04T16:56:59.850Z,4.44
2018-03-04T16:59:29.095Z,4.36
2018-03-04T17:01:57.512Z,4.26
2018-03-04T17:04:25.969Z,4.18
2018-03-04T17:06:54.375Z,4.09
2018-03-04T17:09:22.745Z,4.03
2018-03-04T17:11:51.184Z,3.91
2018-03-04T17:14:19.548Z,3.84
2018-03-04T17:16:48.706Z,3.76
2018-03-04T17:19:17.071Z,3.67
2018-03-04T17:21:45.436Z,3.59
2018-03-04T17:24:13.965Z,3.48
2018-03-04T17:26:42.342Z,3.41
2018-03-04T17:29:11.765Z,3.37
2018-03-04T17:31:40.907Z,3.32
2018-03-04T17:34:10.143Z,3.25
2018-03-04T17:36:39.313Z,3.21
2018-03-04T17:39:07.762Z,3.17
2018-03-04T17:41:36.206Z,3.07
2018-03-04T17:44:04.600Z,2.96
2018-03-04T17:46:32.986Z,2.95
2018-03-04T17:49:01.400Z,2.92
2018-03-04T17:51:29.786Z,2.91
2018-03-04T17:53:58.243Z,2.89
2018-03-04T17:56:26.605Z,2.87
2018-03-04T17:58:55.006Z,2.85
2018-03-04T18:01:23.370Z,2.84
2018-03-04T18:03:51.741Z,2.80
2018-03-04T18:06:20.148Z,2.77
2018-03-04T18:08:48.607Z,2.74
2018-03-04T18:11:17.775Z,2.67
2018-03-04T18:13:46.221Z,2.66
2018-03-04T18:16:14.586Z,2.57
2018-03-04T18:18:43.018Z,2.57
2018-03-04T18:21:11.508Z,2.58
2018-03-04T18:23:39.894Z,2.63
2018-03-04T18:26:08.302Z,2.59
2018-03-04T18:28:36.658Z,2.58
2018-03-04T18:31:05.024Z,2.56
2018-03-04T18:33:33.414Z,2.56
2018-03-04T18:36:01.829Z,2.56
2018-03-04T18:38:30.229Z,2.50
2018-03-04T18:40:58.638Z,2.50
2018-03-04T18:43:27.094Z,2.51
2018-03-04T18:45:56.226Z,2.41
2018-03-04T18:48:24.614Z,2.39
2018-03-04T18:50:53.055Z,2.35
2018-03-04T18:53:22.220Z,2.30
2018-03-04T18:55:50.627Z,2.34
2018-03-04T18:58:19.801Z,2.35
2018-03-04T19:00:48.204Z,2.31
2018-03-04T19:03:17.338Z,2.29
2018-03-04T19:05:45.714Z,2.30
2018-03-04T19:08:14.099Z,2.26
2018-03-04T19:10:42.461Z,2.19
2018-03-04T19:13:11.168Z,2.14
2018-03-04T19:15:39.578Z,2.11
2018-03-04T19:18:07.948Z,2.13
2018-03-04T19:20:36.392Z,2.10
2018-03-04T19:23:04.808Z,2.07
2018-03-04T19:25:33.281Z,2.07
2018-03-04T19:28:01.724Z,2.05
2018-03-04T19:30:30.132Z,2.02
2018-03-04T19:32:58.513Z,1.96
2018-03-04T19:35:26.882Z,1.91
2018-03-04T19:37:55.460Z,1.88
2018-03-04T19:40:23.853Z,1.86
2018-03-04T19:42:52.353Z,1.90
2018-03-04T19:45:20.764Z,1.92
2018-03-04T19:47:49.936Z,1.90
2018-03-04T19:50:18.359Z,1.88
2018-03-04T19:52:46.731Z,1.83
2018-03-04T19:55:15.114Z,1.79
2018-03-04T19:57:43.600Z,1.75
2018-03-04T20:00:11.982Z,1.72
2018-03-04T20:02:40.370Z,1.69
2018-03-04T20:05:08.863Z,1.65
2018-03-04T20:07:37.218Z,1.63
2018-03-04T20:10:05.590Z,1.58
2018-03-04T20:12:34.038Z,1.50
2018-03-04T20:15:02.366Z,1.45
2018-03-04T20:17:30.772Z,1.44
2018-03-04T20:19:59.167Z,1.42
2018-03-04T20:22:28.311Z,1.40
2018-03-04T20:24:56.873Z,1.37
2018-03-04T20:27:25.243Z,1.45
2018-03-04T20:29:54.418Z,1.42
2018-03-04T20:32:22.827Z,1.44
2018-03-04T20:34:51.198Z,1.39
2018-03-04T20:37:20.381Z,1.38
2018-03-04T20:39:49.520Z,1.29
2018-03-04T20:42:17.987Z,1.26
2018-03-04T20:44:46.708Z,1.22
2018-03-04T20:47:15.096Z,1.18
2018-03-04T20:49:43.506Z,1.14
2018-03-04T20:52:12.686Z,1.10
2018-03-04T20:54:41.114Z,1.04
2018-03-04T20:57:09.521Z,1.02
2018-03-04T20:59:37.970Z,0.98
2018-03-04T21:02:06.336Z,0.91
2018-03-04T21:04:34.758Z,0.86
2018-03-04T21:07:03.189Z,0.88
2018-03-04T21:09:31.568Z,0.85
2018-03-04T21:11:59.984Z,0.80
2018-03-04T21:14:28.350Z,0.79
2018-03-04T21:16:56.913Z,0.75
2018-03-04T21:19:25.712Z,0.71
2018-03-04T21:21:54.097Z,0.69
2018-03-04T21:24:22.498Z,0.64
2018-03-04T21:26:50.883Z,0.61
2018-03-04T21:29:19.314Z,0.58
2018-03-04T21:31:47.727Z,0.55
2018-03-04T21:34:16.122Z,0.54
2018-03-04T21:36:44.501Z,0.51
2018-03-04T21:39:12.874Z,0.48
2018-03-04T21:41:41.281Z,0.46
2018-03-04T21:44:09.688Z,0.43
2018-03-04T21:46:38.912Z,0.40
2018-03-04T21:49:07.288Z,0.39
2018-03-04T21:51:35.670Z,0.39
2018-03-04T21:54:04.041Z,0.34
2018-03-04T21:56:32.477Z,0.32
2018-03-04T21:59:00.863Z,0.23
2018-03-04T22:01:29.295Z,0.21
2018-03-04T22:03:57.712Z,0.17
2018-03-04T22:06:26.125Z,0.14
2018-03-04T22:08:54.524Z,0.09
2018-03-04T22:11:22.918Z,0.04
2018-03-04T22:13:51.357Z,0.01
2018-03-04T22:16:19.740Z,-0.02
2018-03-04T22:18:48.128Z,-0.02
2018-03-04T22:21:16.547Z,-0.04
2018-03-04T22:23:44.944Z,-0.04
2018-03-04T22:26:13.346Z,-0.03
2018-03-04T22:28:41.746Z,-0.04
2018-03-04T22:31:10.201Z,-0.06
2018-03-04T22:33:39.352Z,-0.10
2018-03-04T22:36:07.788Z,-0.12
2018-03-04T22:38:36.916Z,-0.12
2018-03-04T22:41:05.316Z,-0.18
2018-03-04T22:43:33.728Z,-0.20
2018-03-04T22:46:02.845Z,-0.19
2018-03-04T22:48:31.227Z,-0.18
2018-03-04T22:50:59.601Z,-0.16
2018-03-04T22:53:28.115Z,-0.18
2018-03-04T22:55:56.515Z,-0.20
2018-03-04T22:58:24.892Z,-0.24
2018-03-04T23:00:53.314Z,-0.25
2018-03-04T23:03:21.689Z,-0.27
2018-03-04T23:05:50.073Z,-0.25
2018-03-04T23:08:18.462Z,-0.24
2018-03-04T23:10:46.846Z,-0.25
2018-03-04T23:13:15.233Z,-0.24
2018-03-04T23:15:43.632Z,-0.19
2018-03-04T23:18:12.040Z,-0.15
2018-03-04T23:20:41.176Z,-0.11
2018-03-04T23:23:09.610Z,-0.08
2018-03-04T23:25:37.977Z,-0.08
2018-03-04T23:28:06.354Z,-0.08
2018-03-04T23:30:34.751Z,-0.04
2018-03-04T23:33:03.887Z,0.02
2018-03-04T23:35:32.271Z,0.06
2018-03-04T23:38:00.662Z,0.10
2018-03-04T23:40:29.053Z,0.11
2018-03-04T23:42:57.449Z,0.15
2018-03-04T23:45:25.821Z,0.22
2018-03-04T23:47:54.218Z,0.24
2018-03-04T23:50:22.612Z,0.34
2018-03-04T23:52:51.774Z,0.35
2018-03-04T23:55:20.226Z,0.36
2018-03-04T23:57:48.590Z,0.42
